createdAt,value
2023-05-21T00:05:05.287Z,1.22
2023-05-21T00:10:21.424Z,1.19
2023-05-21T00:15:38.162Z,1.19
2023-05-21T00:20:52.222Z,1.27
2023-05-21T00:26:07.943Z,1.21
2023-05-21T00:31:24.157Z,1.29
2023-05-21T00:36:38.957Z,1.3
2023-05-21T00:41:54.871Z,1.31
2023-05-21T00:47:11.253Z,1.17
2023-05-21T00:52:27.252Z,1.12
2023-05-21T00:57:42.192Z,1.21
2023-05-21T01:02:58.253Z,1.08
2023-05-21T01:08:13.349Z,1.08
2023-05-21T01:13:29.002Z,1.11
2023-05-21T01:18:45.636Z,1.05
2023-05-21T01:24:00.713Z,1.04
2023-05-21T01:29:15.486Z,0.99
2023-05-21T01:34:30.313Z,1.06
2023-05-21T01:39:45.672Z,1.04
2023-05-21T01:45:01.609Z,1.01
2023-05-21T01:50:16.901Z,1.03
2023-05-21T01:55:33.182Z,1.06
2023-05-21T02:00:49.317Z,1.02
2023-05-21T02:06:05.364Z,1.03
2023-05-21T02:11:20.836Z,0.98
2023-05-21T02:16:36.546Z,1.02
2023-05-21T02:21:51.933Z,0.96
2023-05-21T02:27:06.335Z,1.02
2023-05-21T02:32:22.313Z,0.98
2023-05-21T02:37:38.545Z,0.97
2023-05-21T02:42:54.584Z,0.99
2023-05-21T02:48:11.020Z,1.04
2023-05-21T02:53:28.254Z,1
2023-05-21T02:58:44.708Z,0.99
2023-05-21T03:04:00.398Z,1.08
2023-05-21T03:09:17.256Z,1
2023-05-21T03:14:32.520Z,1
2023-05-21T03:18:35.845Z,1
2023-05-21T03:23:50.725Z,1.01
2023-05-21T03:29:06.554Z,1.05
2023-05-21T03:34:22.625Z,1.06
2023-05-21T03:39:39.134Z,1.03
2023-05-21T03:44:54.554Z,1.21
2023-05-21T03:50:10.622Z,1.18
2023-05-21T03:55:25.167Z,1.21
2023-05-21T04:00:40.903Z,1.33
2023-05-21T04:05:57.525Z,1.25
2023-05-21T04:11:12.534Z,1.24
2023-05-21T04:16:28.339Z,1.22
2023-05-21T05:03:58.127Z,1.12
2023-05-21T05:09:13.828Z,1.09
2023-05-21T05:14:21.837Z,1.09
2023-05-21T05:19:37.600Z,1.1
2023-05-21T05:24:53.853Z,1.12
2023-05-21T05:30:09.875Z,1.13
2023-05-21T05:35:25.439Z,1.13
2023-05-21T05:40:40.962Z,1.08
2023-05-21T05:45:56.657Z,1.08
2023-05-21T05:51:11.656Z,1.13
2023-05-21T05:56:28.092Z,1.13
2023-05-21T06:01:43.996Z,1.1
2023-05-21T06:06:59.628Z,1.12
2023-05-21T06:12:16.147Z,1.2
2023-05-21T06:17:31.376Z,1.16
2023-05-21T06:22:46.626Z,1.12
2023-05-21T06:28:00.968Z,1.19
2023-05-21T06:33:17.791Z,1.17
2023-05-21T06:38:32.232Z,1.21
2023-05-21T06:43:47.517Z,1.18
2023-05-21T06:49:03.633Z,1.36
2023-05-21T06:54:19.195Z,1.38
2023-05-21T06:59:35.622Z,1.34
2023-05-21T07:04:51.342Z,1.34
2023-05-21T07:10:07.172Z,1.26
2023-05-21T07:15:22.560Z,1.27
2023-05-21T07:20:38.800Z,1.22
2023-05-21T07:25:54.632Z,1.19
2023-05-21T07:31:10.809Z,1.3
2023-05-21T07:36:25.182Z,1.19
2023-05-21T07:41:41.620Z,1.23
2023-05-21T07:46:56.925Z,1.27
2023-05-21T07:52:13.421Z,1.3
2023-05-21T07:57:29.930Z,1.26
2023-05-21T08:02:47.532Z,1.29
2023-05-21T08:08:02.908Z,1.33
2023-05-21T08:13:19.297Z,1.27
2023-05-21T08:18:34.345Z,1.37
2023-05-21T08:23:49.011Z,1.43
2023-05-21T09:11:17.368Z,1.41
2023-05-21T09:16:33.143Z,1.38
2023-05-21T09:21:41.124Z,1.4
2023-05-21T09:26:56.307Z,1.47
2023-05-21T09:32:12.478Z,1.46
2023-05-21T09:37:28.879Z,1.42
2023-05-21T09:42:44.813Z,1.4
2023-05-21T09:48:01.176Z,1.42
2023-05-21T09:53:18.001Z,1.43
2023-05-21T09:58:32.999Z,1.53
2023-05-21T10:03:51.060Z,1.47
2023-05-21T10:09:06.359Z,1.47
2023-05-21T10:14:20.804Z,1.52
2023-05-21T10:19:35.791Z,1.51
2023-05-21T10:24:50.466Z,1.44
2023-05-21T10:30:04.682Z,1.5
2023-05-21T10:35:20.552Z,1.55
2023-05-21T10:40:38.165Z,1.51
2023-05-21T10:45:52.080Z,1.45
2023-05-21T10:51:08.697Z,1.46
2023-05-21T10:56:23.599Z,1.51
2023-05-21T11:01:39.267Z,1.57
2023-05-21T11:06:54.087Z,1.56
2023-05-21T11:12:09.356Z,1.49
2023-05-21T11:17:25.778Z,1.54
2023-05-21T11:22:41.721Z,1.49
2023-05-21T11:27:57.382Z,1.48
2023-05-21T11:33:13.160Z,1.49
2023-05-21T11:38:29.032Z,1.58
2023-05-21T11:43:44.550Z,1.5
2023-05-21T11:49:01.125Z,1.64
2023-05-21T11:54:16.705Z,1.55
2023-05-21T11:59:32.705Z,1.59
2023-05-21T12:04:47.909Z,1.51
2023-05-21T12:10:03.453Z,1.57
2023-05-21T12:15:18.417Z,1.56
2023-05-21T12:20:33.091Z,1.69
2023-05-21T12:25:48.411Z,1.73
2023-05-21T12:31:04.954Z,1.6
2023-05-21T12:36:20.569Z,1.64
2023-05-21T12:41:34.786Z,1.55
2023-05-21T12:46:51.282Z,1.54
2023-05-21T12:52:07.194Z,1.56
2023-05-21T12:57:22.867Z,1.65
2023-05-21T13:02:38.712Z,1.49
2023-05-21T13:07:52.905Z,1.56
2023-05-21T13:13:09.184Z,1.55
2023-05-21T13:18:24.944Z,1.58
2023-05-21T13:23:39.221Z,1.67
2023-05-21T13:28:53.766Z,1.57
2023-05-21T13:34:09.528Z,1.51
2023-05-21T13:39:25.829Z,1.61
2023-05-21T13:44:42.169Z,1.52
2023-05-21T13:49:57.095Z,1.53
2023-05-21T13:55:13.335Z,1.57
2023-05-21T14:00:28.992Z,1.54
2023-05-21T14:05:44.741Z,1.55
2023-05-21T14:11:05.157Z,1.54
2023-05-21T14:16:16.550Z,1.47
2023-05-21T14:21:32.766Z,1.45
2023-05-21T14:26:48.565Z,1.42
2023-05-21T14:32:03.913Z,1.44
2023-05-21T14:37:20.350Z,1.41
2023-05-21T14:42:36.721Z,1.47
2023-05-21T14:47:52.519Z,1.53
2023-05-21T14:53:07.318Z,1.42
2023-05-21T14:58:22.477Z,1.5
2023-05-21T15:03:39.681Z,1.53
2023-05-21T15:08:54.801Z,1.6
2023-05-21T15:14:10.885Z,1.51
2023-05-21T16:06:57.523Z,1.54
2023-05-21T16:12:05.668Z,1.57
2023-05-21T16:17:21.345Z,1.63
2023-05-21T16:22:36.246Z,1.56
2023-05-21T16:27:52.087Z,1.63
2023-05-21T16:33:06.877Z,1.49
2023-05-21T16:38:23.337Z,1.54
2023-05-21T16:43:39.272Z,1.58
2023-05-21T16:48:54.056Z,1.52
2023-05-21T16:54:09.532Z,1.55
2023-05-21T16:59:23.533Z,1.58
2023-05-21T17:04:38.719Z,1.56
2023-05-21T17:09:55.208Z,1.62
2023-05-21T17:15:11.063Z,1.61
2023-05-21T17:20:27.435Z,1.52
2023-05-21T17:25:42.899Z,1.62
2023-05-21T17:30:59.501Z,1.64
2023-05-21T17:36:14.645Z,1.64
2023-05-21T17:41:30.309Z,1.62
2023-05-21T17:46:45.476Z,1.61
2023-05-21T17:52:00.583Z,1.58
2023-05-21T17:57:16.859Z,1.52
2023-05-21T18:02:32.040Z,1.61
2023-05-21T18:07:46.970Z,1.54
2023-05-21T18:13:02.160Z,1.52
2023-05-21T18:18:22.007Z,1.64
2023-05-21T18:23:33.274Z,1.71
2023-05-21T18:28:49.698Z,1.51
2023-05-21T18:34:06.080Z,1.59
2023-05-21T18:39:20.941Z,1.63
2023-05-21T18:44:37.353Z,1.55
2023-05-21T18:49:52.964Z,1.61
2023-05-21T18:55:08.727Z,1.6
2023-05-21T19:00:25.084Z,1.64
2023-05-21T19:05:40.661Z,1.7
2023-05-21T19:10:56.565Z,1.6
2023-05-21T19:16:12.925Z,1.63
2023-05-21T19:21:27.574Z,1.63
2023-05-21T19:26:42.560Z,1.71
2023-05-21T19:31:57.857Z,1.71
2023-05-21T20:29:57.352Z,1.21
2023-05-21T20:35:12.220Z,1.21
2023-05-21T20:40:20.386Z,1.28
2023-05-21T20:45:35.777Z,1.21
2023-05-21T20:50:50.818Z,1.22
2023-05-21T20:56:06.325Z,1.26
2023-05-21T21:01:22.780Z,1.33
2023-05-21T21:06:37.650Z,1.32
2023-05-21T21:11:52.006Z,1.27
2023-05-21T21:17:08.183Z,1.21
2023-05-21T21:22:22.401Z,1.1
2023-05-21T21:27:38.781Z,0.99
2023-05-21T21:32:53.994Z,1
2023-05-21T21:38:09.307Z,1.08
2023-05-21T21:43:24.779Z,1.07
2023-05-21T21:48:41.319Z,1.09
2023-05-21T21:53:56.487Z,1.13
2023-05-21T21:59:11.930Z,1.28
2023-05-21T22:04:26.680Z,1.2
2023-05-21T22:09:41.664Z,1.24
2023-05-21T22:14:57.857Z,1.21
2023-05-21T22:20:14.494Z,1.31
2023-05-21T22:25:29.586Z,1.25
2023-05-21T22:30:44.774Z,1.41
2023-05-21T22:36:00.006Z,1.36
2023-05-21T22:41:14.784Z,1.39
2023-05-21T22:46:30.938Z,1.3
2023-05-21T22:51:45.819Z,1.41
2023-05-21T22:57:01.862Z,1.4
2023-05-21T23:02:17.595Z,1.43
2023-05-21T23:07:32.249Z,1.46
2023-05-21T23:12:48.233Z,1.36
2023-05-21T23:18:04.439Z,1.41
2023-05-21T23:23:18.712Z,1.51
2023-05-21T23:28:34.132Z,1.45
2023-05-21T23:33:50.093Z,1.43
2023-05-21T23:39:04.740Z,1.49
2023-05-21T23:44:20.890Z,1.41
2023-05-21T23:49:35.858Z,1.39
2023-05-21T23:54:50.798Z,1.41
